Overview Statistics Trail Chart Weather Telemetry Raw packets
 

This is the latest recevied weather packets stored in our database for station/object IT9KVB-11. If no packets are shown the sender has not sent any weather packets the latest 10 day(s).

<< 3 4 5 6 7 8 9 >>
Time Temp. Humidity Pressure Rain* Wind** Luminosity Snow
1788507868 27.78° C 42% 927 hPa 0 mm 5.81 m/s, 0° - -
1788506952 26.11° C 49% 927 hPa 0 mm 7.15 m/s, 0° - -
1788506036 23.89° C 58% 927 hPa 0 mm 0.89 m/s, 0° - -
1788505138 22.22° C 63% 927 hPa 0 mm 4.02 m/s, 0° - -
1788504205 21.67° C 65% 927 hPa 0 mm 4.02 m/s, 0° - -
1788503289 20.56° C 67% 927 hPa 0 mm 0 m/s - -
1788502373 20° C 65% 927 hPa 0 mm 0 m/s - -
1788501458 19.44° C 70% 927 hPa 0 mm 3.13 m/s, 0° - -
1788500542 19.44° C 71% 926 hPa 0 mm 13.86 m/s, 0° - -
1788499626 18.89° C 73% 926 hPa 0 mm 22.8 m/s, 0° - -
1788498711 18.89° C 74% 926 hPa 0 mm 4.92 m/s, 0° - -
1788497795 19.44° C 71% 926 hPa 0 mm 4.02 m/s, 0° - -
1788496879 19.44° C 68% 926 hPa 0 mm 4.92 m/s, 0° - -
1788495964 19.44° C 65% 926 hPa 0 mm 19.22 m/s, 0° - -
1788495048 19.44° C 65% 926 hPa 0 mm 16.99 m/s, 0° - -
1788494132 19.44° C 66% 926 hPa 0 mm 21.9 m/s, 0° - -
1788493217 19.44° C 63% 926 hPa 0 mm 13.86 m/s, 0° - -
1788492301 19.44° C 64% 926 hPa 0 mm 11.18 m/s, 0° - -
1788491385 19.44° C 64% 926 hPa 0 mm 13.86 m/s, 0° - -
1788490469 19.44° C 66% 926 hPa 0 mm 11.18 m/s, 0° - -
1788489554 19.44° C 67% 926 hPa 0 mm 1.79 m/s, 0° - -
1788488638 20° C 64% 926 hPa 0 mm 8.94 m/s, 0° - -
1788487747 20° C 70% 926 hPa 0 mm 1.79 m/s, 0° - -
1788486807 19.44° C 73% 926 hPa 0 mm 9.83 m/s, 0° - -
1788485891 20° C 71% 926 hPa 0 mm 11.18 m/s, 0° - -

* Rain latest hour (hover to see other rain measurements)
** Current wind speed in m/s (hover to see current wind gust speed)